Time;durP1;ratioP1;P1;durP2;ratioP2;P2;SDS_P1;SDS_P2;PMS_P1;PMS_P2;Temp;Humidity;BMP_temperature;BMP_pressure;BME280_temperature;BME280_humidity;BME280_pressure;Samples;Min_cycle;Max_cycle;Signal;HPM_P1;HPM_P2
2022/08/14 00:00:16;;;;;;;49.80;43.40;;;;;;;18.32;100.00;98545.00;105141;1271;61299;-70
2022/08/14 00:03:03;;;;;;;46.70;41.20;;;;;;;18.31;100.00;98546.79;105197;1271;70659;-71
2022/08/14 00:05:29;;;;;;;48.90;42.00;;;;;;;18.29;100.00;98548.61;105194;1271;74245;-71
2022/08/14 00:07:56;;;;;;;47.60;41.40;;;;;;;18.29;100.00;98552.07;105180;1271;61179;-71
2022/08/14 00:10:23;;;;;;;46.50;40.70;;;;;;;18.27;100.00;98550.67;105154;1271;61195;-71
2022/08/14 00:12:54;;;;;;;47.40;42.20;;;;;;;18.27;100.00;98546.66;105164;1271;75122;-70
2022/08/14 00:15:28;;;;;;;54.50;44.40;;;;;;;18.26;100.00;98546.59;105221;1271;70404;-71
2022/08/14 00:17:55;;;;;;;56.20;46.10;;;;;;;18.25;100.00;98543.83;105202;1271;74319;-71
2022/08/14 00:20:25;;;;;;;54.90;44.60;;;;;;;18.25;100.00;98542.62;105197;1271;61363;-71
2022/08/14 00:22:52;;;;;;;54.90;45.40;;;;;;;18.23;100.00;98537.59;105187;1271;61285;-71
2022/08/14 00:25:19;;;;;;;55.40;45.70;;;;;;;18.23;100.00;98536.14;105190;1271;76287;-72
2022/08/14 00:27:45;;;;;;;53.40;44.90;;;;;;;18.22;100.00;98540.34;105211;1271;69316;-71
2022/08/14 00:30:13;;;;;;;56.50;47.80;;;;;;;18.21;100.00;98532.72;105127;1270;61307;-71
2022/08/14 00:32:41;;;;;;;55.40;44.30;;;;;;;18.22;100.00;98536.26;105181;1271;61654;-72
2022/08/14 00:35:09;;;;;;;51.80;43.80;;;;;;;18.19;100.00;98531.64;104925;1271;61196;-72
2022/08/14 00:37:43;;;;;;;54.70;44.40;;;;;;;18.19;100.00;98530.57;105200;1271;76297;-72
2022/08/14 00:40:12;;;;;;;46.30;40.20;;;;;;;18.18;100.00;98528.15;104964;1274;70410;-71
2022/08/14 00:42:40;;;;;;;46.20;41.20;;;;;;;18.16;100.00;98522.58;105321;1271;73981;-71
2022/08/14 00:45:11;;;;;;;43.10;38.20;;;;;;;18.15;100.00;98519.11;105203;1270;61370;-72
2022/08/14 00:47:39;;;;;;;42.20;37.60;;;;;;;18.14;100.00;98516.27;105293;1269;61296;-71
2022/08/14 00:50:08;;;;;;;44.20;37.20;;;;;;;18.12;100.00;98510.81;105165;1270;75192;-71
2022/08/14 00:52:34;;;;;;;44.90;37.20;;;;;;;18.12;100.00;98508.10;104868;1271;69345;-71
2022/08/14 00:55:04;;;;;;;39.90;35.00;;;;;;;18.12;100.00;98506.22;105168;1271;74174;-71
2022/08/14 00:57:33;;;;;;;39.30;34.00;;;;;;;18.11;100.00;98502.00;105193;1271;61400;-71
2022/08/14 01:00:00;;;;;;;37.60;33.70;;;;;;;18.10;100.00;98499.73;105200;1271;62034;-72
2022/08/14 01:02:28;;;;;;;39.20;35.20;;;;;;;18.09;100.00;98498.73;105217;1271;75207;-71
2022/08/14 01:04:57;;;;;;;38.00;34.10;;;;;;;18.08;100.00;98498.17;105327;1271;68099;-70
2022/08/14 01:07:28;;;;;;;39.20;33.80;;;;;;;18.08;100.00;98496.22;105253;1271;73219;-71
2022/08/14 01:09:58;;;;;;;40.80;36.40;;;;;;;18.06;100.00;98497.33;105338;1270;61345;-72
2022/08/14 01:12:26;;;;;;;38.90;34.70;;;;;;;18.05;100.00;98493.98;105211;1271;61354;-72
2022/08/14 01:14:54;;;;;;;38.00;34.00;;;;;;;18.04;100.00;98495.23;105185;1271;75848;-72
2022/08/14 01:17:22;;;;;;;37.80;33.90;;;;;;;18.01;100.00;98496.91;105313;1271;69169;-72
2022/08/14 01:22:35;;;;;;;38.20;34.40;;;;;;;17.98;100.00;98497.05;105180;1271;61398;-71
2022/08/14 01:25:02;;;;;;;37.90;33.80;;;;;;;17.95;100.00;98490.72;105220;1271;61370;-70
2022/08/14 01:27:29;;;;;;;35.50;31.40;;;;;;;17.92;100.00;98490.29;105193;1271;74662;-70
2022/08/14 01:29:56;;;;;;;37.60;33.80;;;;;;;17.90;100.00;98492.33;105205;1271;69873;-71
2022/08/14 01:32:23;;;;;;;35.50;31.60;;;;;;;17.87;100.00;98493.34;105305;1271;73140;-72
2022/08/14 01:34:55;;;;;;;35.90;32.20;;;;;;;17.85;100.00;98490.19;105207;1269;61285;-71
2022/08/14 01:37:23;;;;;;;36.10;32.20;;;;;;;17.83;100.00;98493.80;105233;1271;61240;-71
2022/08/14 01:39:51;;;;;;;35.60;31.90;;;;;;;17.81;100.00;98490.98;105053;1271;75970;-72
2022/08/14 01:42:18;;;;;;;36.20;32.50;;;;;;;17.79;100.00;98491.67;105229;1269;68200;-71
2022/08/14 01:44:49;;;;;;;34.50;31.20;;;;;;;17.76;100.00;98490.33;105264;1271;73181;-71
2022/08/14 01:47:17;;;;;;;35.40;32.10;;;;;;;17.74;100.00;98487.85;105236;1270;61294;-70
2022/08/14 01:49:44;;;;;;;36.00;32.20;;;;;;;17.72;100.00;98491.81;105058;1271;61345;-73
2022/08/14 01:52:11;;;;;;;36.10;32.30;;;;;;;17.71;100.00;98495.75;105212;1271;76049;-72
2022/08/14 01:54:38;;;;;;;35.30;31.80;;;;;;;17.69;100.00;98497.92;105219;1270;69685;-72
2022/08/14 01:57:09;;;;;;;36.00;32.30;;;;;;;17.68;100.00;98498.70;105187;1271;73654;-71
2022/08/14 01:59:37;;;;;;;35.20;31.50;;;;;;;17.68;100.00;98493.21;105213;1271;61408;-71
2022/08/14 02:02:11;;;;;;;36.50;32.70;;;;;;;17.68;100.00;98495.53;105264;1271;61340;-71
2022/08/14 02:04:39;;;;;;;35.90;32.30;;;;;;;17.67;100.00;98492.37;105210;1271;75089;-71
2022/08/14 02:07:08;;;;;;;34.20;30.80;;;;;;;17.66;100.00;98491.79;105197;1271;69163;-71
2022/08/14 02:09:37;;;;;;;34.30;30.80;;;;;;;17.65;100.00;98490.23;105534;1271;72557;-71
2022/08/14 02:12:06;;;;;;;34.40;30.90;;;;;;;17.65;100.00;98489.02;104901;1271;61432;-71
2022/08/14 02:14:34;;;;;;;35.00;31.40;;;;;;;17.64;100.00;98487.10;105200;1270;61147;-71
2022/08/14 02:17:01;;;;;;;33.50;30.20;;;;;;;17.64;100.00;98487.45;104923;1271;75392;-71
2022/08/14 02:19:30;;;;;;;33.40;30.00;;;;;;;17.65;100.00;98486.13;105199;1271;69196;-71
2022/08/14 02:21:59;;;;;;;32.90;29.60;;;;;;;17.65;100.00;98485.63;105221;1271;73195;-72
2022/08/14 02:24:30;;;;;;;32.00;28.80;;;;;;;17.64;100.00;98485.14;105230;1271;61337;-70
2022/08/14 02:26:59;;;;;;;32.30;28.90;;;;;;;17.64;100.00;98487.49;105210;1270;61267;-70
2022/08/14 02:29:28;;;;;;;32.10;28.70;;;;;;;17.64;100.00;98485.20;105071;1271;75311;-70
2022/08/14 02:31:57;;;;;;;33.80;30.00;;;;;;;17.63;100.00;98481.13;105221;1270;70600;-71
2022/08/14 02:34:35;;;;;;;32.40;29.00;;;;;;;17.63;100.00;98479.64;104848;1271;72660;-71
2022/08/14 02:37:08;;;;;;;33.20;30.00;;;;;;;17.64;100.00;98479.21;105197;1270;61374;-71
2022/08/14 02:39:41;;;;;;;33.30;29.90;;;;;;;17.65;100.00;98476.21;104725;1271;61200;-72
2022/08/14 02:42:11;;;;;;;33.80;30.40;;;;;;;17.66;100.00;98477.70;105153;1271;75621;-71
2022/08/14 02:44:39;;;;;;;;;;;;;;;17.67;100.00;98478.19;105308;1270;68978;-71
2022/08/14 02:47:07;;;;;;;33.80;29.60;;;;;;;17.68;100.00;98479.04;105324;1271;73234;-71
2022/08/14 02:49:34;;;;;;;33.90;30.60;;;;;;;17.68;100.00;98478.08;105210;1271;61328;-71
2022/08/14 02:52:05;;;;;;;32.90;29.70;;;;;;;17.69;100.00;98476.50;105200;1271;61951;-70
2022/08/14 02:54:33;;;;;;;35.10;31.60;;;;;;;17.70;100.00;98476.21;105211;1271;74649;-71
2022/08/14 02:57:04;;;;;;;32.20;29.00;;;;;;;17.72;100.00;98479.12;105026;1272;67899;-70
2022/08/14 02:59:33;;;;;;;32.90;29.70;;;;;;;17.72;100.00;98472.59;105251;1271;74054;-71
2022/08/14 03:02:01;;;;;;;33.70;30.10;;;;;;;17.73;100.00;98472.89;105227;1271;61366;-70
2022/08/14 03:04:29;;;;;;;33.30;30.00;;;;;;;17.74;100.00;98474.38;105230;1271;61296;-71
2022/08/14 03:06:56;;;;;;;33.70;30.20;;;;;;;17.75;100.00;98475.73;105235;1270;74081;-71
2022/08/14 03:09:23;;;;;;;33.80;30.50;;;;;;;17.75;100.00;98474.65;105229;1270;69387;-70
2022/08/14 03:11:51;;;;;;;32.90;29.60;;;;;;;17.74;100.00;98474.55;105341;1271;73149;-71
2022/08/14 03:14:19;;;;;;;34.90;31.20;;;;;;;17.74;100.00;98476.13;105186;1271;61436;-72
2022/08/14 03:16:48;;;;;;;33.40;30.20;;;;;;;17.75;100.00;98473.52;105449;1270;61386;-71
2022/08/14 03:19:16;;;;;;;33.60;30.30;;;;;;;17.77;100.00;98472.08;105090;1271;74785;-71
2022/08/14 03:21:44;;;;;;;34.40;30.50;;;;;;;17.78;100.00;98471.23;105114;1271;68871;-71
2022/08/14 03:24:10;;;;;;;32.50;29.30;;;;;;;17.78;100.00;98470.87;104899;1272;73403;-71
2022/08/14 03:26:39;;;;;;;33.10;29.90;;;;;;;17.79;100.00;98468.31;105183;1271;61377;-71
2022/08/14 03:29:07;;;;;;;37.20;32.30;;;;;;;17.80;100.00;98470.40;105389;1269;61295;-71
2022/08/14 03:31:39;;;;;;;34.90;31.10;;;;;;;17.81;100.00;98473.13;105242;1271;75741;-71
2022/08/14 03:34:10;;;;;;;36.60;32.90;;;;;;;17.82;100.00;98469.63;105228;1270;69198;-71
2022/08/14 03:36:44;;;;;;;35.40;31.80;;;;;;;17.83;100.00;98466.67;105388;1271;74472;-71
2022/08/14 03:39:11;;;;;;;35.00;31.40;;;;;;;17.83;100.00;98465.23;105173;1270;61249;-71
2022/08/14 03:41:39;;;;;;;34.40;30.90;;;;;;;17.84;100.00;98466.73;105221;1271;61185;-71
2022/08/14 03:44:06;;;;;;;34.90;31.50;;;;;;;17.85;100.00;98464.63;105252;1270;76021;-71
2022/08/14 03:46:37;;;;;;;34.90;31.30;;;;;;;17.85;100.00;98468.57;105192;1271;69966;-71
2022/08/14 03:49:05;;;;;;;34.80;31.20;;;;;;;17.85;100.00;98466.23;105281;1271;73043;-71
2022/08/14 03:51:33;;;;;;;34.50;31.00;;;;;;;17.86;100.00;98465.06;105242;1271;61313;-71
2022/08/14 03:54:02;;;;;;;34.10;30.50;;;;;;;17.86;100.00;98465.07;105310;1271;61380;-71
2022/08/14 03:56:29;;;;;;;34.80;31.50;;;;;;;17.86;100.00;98466.17;105333;1271;76292;-71
2022/08/14 03:59:03;;;;;;;33.30;30.10;;;;;;;17.86;100.00;98466.65;105238;1271;69183;-71
2022/08/14 04:01:29;;;;;;;34.40;30.70;;;;;;;17.87;100.00;98470.88;105254;1271;73664;-71
2022/08/14 04:03:58;;;;;;;35.20;31.70;;;;;;;17.88;100.00;98470.23;105176;1270;61217;-71
2022/08/14 04:06:24;;;;;;;36.40;32.40;;;;;;;17.90;100.00;98467.84;105403;1271;61272;-71
2022/08/14 04:08:52;;;;;;;34.10;30.50;;;;;;;17.91;100.00;98464.31;105192;1270;61288;-71
2022/08/14 04:11:20;;;;;;;34.30;30.60;;;;;;;17.90;100.00;98463.70;105244;1270;69107;-71
2022/08/14 04:13:48;;;;;;;36.10;32.20;;;;;;;17.90;100.00;98461.05;105213;1270;73168;-72
2022/08/14 04:16:19;;;;;;;35.60;31.90;;;;;;;17.90;100.00;98462.65;105237;1271;61351;-71
2022/08/14 04:18:49;;;;;;;34.50;30.80;;;;;;;17.90;100.00;98457.56;105305;1271;61290;-71
2022/08/14 04:21:16;;;;;;;34.30;30.50;;;;;;;17.91;100.00;98460.07;105320;1271;74606;-72
2022/08/14 04:23:46;;;;;;;35.70;31.80;;;;;;;17.91;100.00;98461.88;105209;1271;70354;-72
2022/08/14 04:26:15;;;;;;;34.80;31.20;;;;;;;17.90;100.00;98464.27;105393;1271;73337;-71
2022/08/14 04:28:42;;;;;;;35.10;30.80;;;;;;;17.89;100.00;98463.16;105306;1271;61246;-71
2022/08/14 04:31:10;;;;;;;34.90;31.20;;;;;;;17.88;100.00;98466.33;105235;1271;62056;-71
2022/08/14 04:33:36;;;;;;;34.50;30.80;;;;;;;17.88;100.00;98463.66;104934;1271;75260;-71
2022/08/14 04:36:03;;;;;;;34.00;29.90;;;;;;;17.88;100.00;98462.69;105238;1270;70211;-71
2022/08/14 04:44:01;;;;;;;33.30;29.20;;;;;;;17.90;100.00;98466.45;105208;1271;61357;-70
2022/08/14 04:46:28;;;;;;;34.60;30.90;;;;;;;17.89;100.00;98466.33;104881;1274;75076;-71
2022/08/14 04:48:54;;;;;;;35.80;31.90;;;;;;;17.90;100.00;98465.85;104642;1274;70180;-70
2022/08/14 04:51:26;;;;;;;36.60;32.70;;;;;;;17.91;100.00;98464.92;104860;1274;61250;-71
2022/08/14 04:53:54;;;;;;;34.90;31.20;;;;;;;17.92;100.00;98465.19;104852;1274;61461;-70
2022/08/14 04:56:23;;;;;;;36.70;32.70;;;;;;;17.91;100.00;98465.77;104979;1273;61580;-70
2022/08/14 04:58:56;;;;;;;36.90;32.20;;;;;;;17.93;100.00;98466.31;104904;1274;76768;-72
2022/08/14 05:01:24;;;;;;;35.50;31.80;;;;;;;17.94;100.00;98469.08;105087;1273;69446;-70
2022/08/14 05:03:53;;;;;;;35.10;31.50;;;;;;;17.95;100.00;98466.14;104932;1274;74546;-70
2022/08/14 05:06:20;;;;;;;38.80;32.50;;;;;;;17.96;100.00;98460.93;104855;1273;61362;-71
2022/08/14 05:08:47;;;;;;;38.40;31.00;;;;;;;17.99;100.00;98460.83;104961;1274;62485;-70
2022/08/14 05:11:14;;;;;;;37.80;32.10;;;;;;;18.02;100.00;98458.52;104860;1274;73339;-70
2022/08/14 05:13:42;;;;;;;35.80;32.10;;;;;;;18.07;100.00;98456.23;104891;1274;70166;-71
2022/08/14 05:16:11;;;;;;;37.10;32.40;;;;;;;18.11;100.00;98452.02;104789;1274;74243;-71
2022/08/14 05:18:39;;;;;;;37.40;31.60;;;;;;;18.14;100.00;98454.89;105197;1271;61345;-70
2022/08/14 05:21:07;;;;;;;35.40;31.10;;;;;;;18.18;100.00;98450.72;105300;1270;61140;-70
2022/08/14 05:23:37;;;;;;;34.40;30.80;;;;;;;18.25;100.00;98448.38;105097;1271;74572;-70
2022/08/14 05:26:11;;;;;;;34.60;30.90;;;;;;;18.32;100.00;98443.49;105312;1271;70093;-70
2022/08/14 05:28:44;;;;;;;35.10;30.80;;;;;;;18.39;100.00;98447.19;105199;1271;74727;-72
2022/08/14 05:31:16;;;;;;;33.60;30.00;;;;;;;18.44;100.00;98447.20;105205;1270;61157;-71
2022/08/14 05:33:44;;;;;;;33.40;29.90;;;;;;;18.47;100.00;98440.39;105214;1269;61348;-70
2022/08/14 05:36:12;;;;;;;33.70;30.20;;;;;;;18.52;100.00;98436.85;105284;1271;76158;-70
2022/08/14 05:38:45;;;;;;;32.20;28.90;;;;;;;18.60;100.00;98437.88;105211;1271;69666;-71
2022/08/14 05:41:14;;;;;;;30.20;27.10;;;;;;;18.72;100.00;98439.17;105184;1267;74451;-71
2022/08/14 05:43:44;;;;;;;30.30;27.10;;;;;;;18.78;100.00;98441.55;105283;1271;61294;-70
2022/08/14 05:46:12;;;;;;;29.20;26.30;;;;;;;18.84;100.00;98436.67;105333;1271;61798;-71
2022/08/14 05:48:40;;;;;;;30.90;27.60;;;;;;;18.90;100.00;98438.27;105300;1271;75112;-71
2022/08/14 05:51:06;;;;;;;30.60;27.20;;;;;;;18.97;100.00;98436.96;105341;1271;69652;-71
2022/08/14 05:53:33;;;;;;;30.70;27.50;;;;;;;19.05;100.00;98436.63;104922;1271;72755;-71
2022/08/14 05:56:00;;;;;;;29.10;25.90;;;;;;;19.12;100.00;98440.66;105194;1271;61379;-71
2022/08/14 05:58:27;;;;;;;30.60;27.50;;;;;;;19.18;100.00;98441.50;105344;1270;61347;-71
2022/08/14 06:00:55;;;;;;;29.30;26.00;;;;;;;19.20;100.00;98435.81;104988;1271;76349;-72
2022/08/14 06:03:22;;;;;;;30.70;27.60;;;;;;;19.20;100.00;98437.79;105246;1271;69312;-71
2022/08/14 06:05:52;;;;;;;29.70;26.70;;;;;;;19.19;100.00;98431.77;105232;1271;72641;-72
2022/08/14 06:08:27;;;;;;;30.60;27.40;;;;;;;19.15;100.00;98438.75;105188;1270;61274;-69
2022/08/14 06:11:01;;;;;;;30.20;26.70;;;;;;;19.12;100.00;98435.51;104972;1271;61342;-71
2022/08/14 06:13:34;;;;;;;33.80;30.40;;;;;;;19.05;100.00;98436.42;105153;1271;75762;-71
2022/08/14 06:16:01;;;;;;;35.40;29.80;;;;;;;19.02;100.00;98430.41;105238;1271;70196;-72
2022/08/14 06:18:28;;;;;;;33.90;29.80;;;;;;;19.03;100.00;98434.27;105274;1271;73574;-72
2022/08/14 06:20:55;;;;;;;32.90;29.40;;;;;;;19.03;100.00;98434.08;105333;1270;61304;-71
2022/08/14 06:23:21;;;;;;;32.60;28.20;;;;;;;19.03;100.00;98436.39;105071;1271;61319;-71
2022/08/14 06:25:49;;;;;;;33.40;29.90;;;;;;;19.01;100.00;98438.05;105279;1271;76176;-72
2022/08/14 06:28:18;;;;;;;33.60;29.10;;;;;;;19.01;100.00;98439.73;105236;1271;69143;-72
2022/08/14 06:30:45;;;;;;;30.80;27.50;;;;;;;19.02;100.00;98437.61;104933;1271;72145;-72
2022/08/14 06:33:13;;;;;;;35.60;28.80;;;;;;;19.03;100.00;98440.06;105196;1271;61332;-72
2022/08/14 06:35:39;;;;;;;31.60;27.80;;;;;;;19.03;100.00;98441.24;105243;1271;61311;-70
2022/08/14 06:38:06;;;;;;;32.50;28.60;;;;;;;19.06;100.00;98438.81;105215;1271;61215;-72
2022/08/14 06:40:35;;;;;;;30.80;27.60;;;;;;;19.12;100.00;98439.42;105255;1271;69951;-71
2022/08/14 06:43:04;;;;;;;32.20;28.80;;;;;;;19.17;100.00;98439.01;105381;1271;73198;-71
2022/08/14 06:45:32;;;;;;;32.20;27.80;;;;;;;19.23;100.00;98436.89;105264;1271;61346;-72
2022/08/14 06:48:00;;;;;;;30.90;26.70;;;;;;;19.31;100.00;98433.64;105235;1269;61272;-72
2022/08/14 06:50:27;;;;;;;31.20;27.80;;;;;;;19.40;100.00;98435.04;105215;1271;75135;-72
2022/08/14 06:52:54;;;;;;;32.00;28.60;;;;;;;19.47;100.00;98430.77;105207;1271;70265;-72
2022/08/14 06:55:21;;;;;;;30.80;27.40;;;;;;;19.56;100.00;98432.54;105201;1271;73954;-72
2022/08/14 06:57:50;;;;;;;29.30;26.40;;;;;;;19.60;100.00;98432.91;105237;1270;61315;-72
2022/08/14 07:00:23;;;;;;;31.90;26.20;;;;;;;19.63;100.00;98430.79;104994;1271;61361;-72
2022/08/14 07:05:49;;;;;;;29.00;26.20;;;;;;;19.69;100.00;98434.85;105182;1271;69811;-72
2022/08/14 07:08:21;;;;;;;28.90;25.90;;;;;;;19.71;100.00;98432.95;105180;1271;72899;-72
2022/08/14 07:10:50;;;;;;;25.40;22.90;;;;;;;19.75;100.00;98430.03;105156;1270;61320;-72
2022/08/14 07:13:17;;;;;;;27.00;24.30;;;;;;;19.79;100.00;98431.02;105271;1271;61869;-72
2022/08/14 07:15:49;;;;;;;27.30;24.50;;;;;;;19.86;100.00;98429.44;105220;1270;75220;-72
2022/08/14 07:18:21;;;;;;;26.00;23.40;;;;;;;19.97;100.00;98429.45;105268;1269;69245;-73
2022/08/14 07:20:49;;;;;;;25.70;23.00;;;;;;;20.09;100.00;98424.27;105182;1271;73284;-73
2022/08/14 07:23:16;;;;;;;24.70;22.20;;;;;;;20.22;100.00;98424.73;105126;1271;61365;-72
2022/08/14 07:25:43;;;;;;;24.40;21.90;;;;;;;20.35;100.00;98427.75;105241;1271;61249;-71
2022/08/14 07:28:24;;;;;;;24.10;21.70;;;;;;;20.52;100.00;98427.25;105230;1270;75270;-73
2022/08/14 07:30:56;;;;;;;23.20;20.90;;;;;;;20.76;100.00;98419.88;105279;1271;69201;-71
2022/08/14 07:33:26;;;;;;;21.80;19.70;;;;;;;20.99;100.00;98420.13;105325;1271;71324;-71
2022/08/14 07:35:54;;;;;;;19.80;18.00;;;;;;;21.17;100.00;98422.42;105263;1271;61374;-71
2022/08/14 07:38:22;;;;;;;18.40;16.70;;;;;;;21.34;100.00;98419.51;105233;1271;61362;-72
2022/08/14 07:40:50;;;;;;;15.00;13.70;;;;;;;21.61;100.00;98419.72;105224;1271;74278;-72
2022/08/14 07:43:18;;;;;;;15.50;14.10;;;;;;;21.80;100.00;98422.98;105157;1271;69263;-71
2022/08/14 07:45:45;;;;;;;15.10;13.70;;;;;;;21.90;100.00;98418.11;105174;1271;71396;-72
2022/08/14 07:48:11;;;;;;;13.50;12.40;;;;;;;21.89;100.00;98417.85;105175;1271;61266;-73
2022/08/14 07:50:38;;;;;;;13.70;12.40;;;;;;;21.90;100.00;98417.86;105245;1271;61195;-72
2022/08/14 07:53:05;;;;;;;15.00;13.70;;;;;;;21.98;100.00;98415.45;104973;1271;73907;-72
2022/08/14 07:55:32;;;;;;;13.20;12.10;;;;;;;21.94;100.00;98421.23;104980;1271;69115;-73
2022/08/14 07:57:58;;;;;;;12.50;11.40;;;;;;;21.97;100.00;98422.62;105184;1271;73288;-73
2022/08/14 08:00:25;;;;;;;12.80;11.70;;;;;;;21.93;100.00;98420.98;105175;1271;61404;-72
2022/08/14 08:02:53;;;;;;;12.50;11.40;;;;;;;21.89;100.00;98421.05;105197;1271;61757;-73
2022/08/14 08:05:23;;;;;;;11.90;10.90;;;;;;;21.86;100.00;98424.83;105182;1271;76331;-73
2022/08/14 08:07:51;;;;;;;11.20;10.30;;;;;;;21.87;100.00;98422.20;105210;1271;69818;-73
2022/08/14 08:10:31;;;;;;;12.20;11.00;;;;;;;21.87;100.00;98421.94;105220;1271;74164;-73
2022/08/14 08:12:57;;;;;;;;;;;;;;;21.89;100.00;98424.48;105217;1271;61271;-71
2022/08/14 08:15:25;;;;;;;11.30;10.40;;;;;;;21.85;100.00;98423.52;104938;1271;61502;-72
2022/08/14 08:17:52;;;;;;;11.20;10.20;;;;;;;21.79;100.00;98427.64;105208;1271;76493;-73
2022/08/14 08:20:24;;;;;;;11.40;10.40;;;;;;;21.79;100.00;98425.96;105190;1271;70467;-74
2022/08/14 08:22:50;;;;;;;10.30;9.50;;;;;;;21.83;100.00;98422.64;105254;1271;72789;-73
2022/08/14 08:25:18;;;;;;;11.80;10.90;;;;;;;21.87;100.00;98421.20;105162;1271;61312;-72
2022/08/14 08:27:59;;;;;;;11.40;10.50;;;;;;;21.99;100.00;98418.42;105220;1271;61291;-73
2022/08/14 08:30:28;;;;;;;12.50;11.40;;;;;;;22.12;100.00;98416.24;105152;1271;75197;-72
2022/08/14 08:32:57;;;;;;;12.90;11.60;;;;;;;22.21;100.00;98415.24;105232;1271;69296;-72
2022/08/14 08:35:25;;;;;;;10.60;9.80;;;;;;;22.28;100.00;98408.52;105178;1271;74181;-72
2022/08/14 08:37:54;;;;;;;11.50;10.50;;;;;;;22.31;100.00;98412.14;105285;1271;61245;-72
2022/08/14 08:40:25;;;;;;;10.50;9.60;;;;;;;22.37;100.00;98411.80;105268;1271;61297;-70
2022/08/14 08:42:52;;;;;;;10.40;9.60;;;;;;;22.54;100.00;98406.50;105274;1270;75289;-72
2022/08/14 08:45:20;;;;;;;10.20;9.40;;;;;;;22.79;100.00;98402.81;105223;1271;69601;-72
2022/08/14 08:47:49;;;;;;;10.60;9.80;;;;;;;23.00;100.00;98401.96;105320;1271;74225;-72
2022/08/14 08:50:24;;;;;;;12.30;11.40;;;;;;;23.21;100.00;98402.67;105168;1270;61285;-71
2022/08/14 08:52:53;;;;;;;11.10;10.30;;;;;;;23.37;100.00;98401.73;105295;1271;61336;-71
2022/08/14 08:55:36;;;;;;;11.30;10.40;;;;;;;23.38;100.00;98401.98;104961;1271;73614;-72
2022/08/14 08:58:13;;;;;;;12.00;11.00;;;;;;;23.34;100.00;98402.52;105235;1271;70137;-72
2022/08/14 09:00:41;;;;;;;12.10;11.00;;;;;;;23.41;100.00;98401.38;104947;1271;73541;-71
2022/08/14 09:03:16;;;;;;;11.80;10.80;;;;;;;23.60;100.00;98401.44;105184;1271;61402;-71
2022/08/14 09:06:01;;;;;;;10.10;9.10;;;;;;;23.82;100.00;98399.92;105285;1271;61346;-73
2022/08/14 09:08:31;;;;;;;11.00;9.90;;;;;;;23.91;100.00;98399.75;104914;1271;75046;-72
2022/08/14 09:11:00;;;;;;;10.60;9.70;;;;;;;23.83;100.00;98398.38;105323;1271;68931;-72
2022/08/14 09:13:28;;;;;;;10.60;9.80;;;;;;;23.86;100.00;98398.60;105227;1271;73742;-73
2022/08/14 09:15:55;;;;;;;10.50;9.80;;;;;;;23.89;100.00;98398.35;105267;1271;61342;-71
2022/08/14 09:18:23;;;;;;;10.40;9.60;;;;;;;24.01;100.00;98397.75;105172;1271;61808;-72
2022/08/14 09:20:51;;;;;;;9.80;8.90;;;;;;;23.99;100.00;98393.85;104933;1271;75124;-72
2022/08/14 09:23:18;;;;;;;10.50;9.60;;;;;;;23.97;100.00;98396.10;105182;1271;69874;-75
2022/08/14 09:25:48;;;;;;;10.40;9.50;;;;;;;23.98;100.00;98399.07;104918;1271;73015;-75
2022/08/14 09:28:16;;;;;;;11.30;10.40;;;;;;;23.95;100.00;98398.42;105244;1271;61275;-74
2022/08/14 09:30:48;;;;;;;11.80;10.70;;;;;;;24.08;100.00;98393.83;105291;1271;61535;-73
2022/08/14 09:33:33;;;;;;;9.60;8.90;;;;;;;24.34;100.00;98392.02;105158;1271;76488;-73
2022/08/14 09:36:26;;;;;;;10.40;9.40;;;;;;;24.54;100.00;98387.36;105182;1271;70227;-73
2022/08/14 09:39:13;;;;;;;9.60;8.80;;;;;;;24.77;100.00;98385.65;104894;1271;74323;-74
2022/08/14 09:42:25;;;;;;;10.20;9.30;;;;;;;24.97;100.00;98386.09;105163;1271;61413;-74
2022/08/14 09:45:27;;;;;;;10.10;9.30;;;;;;;25.19;100.00;98388.15;104575;1278;61461;-74
2022/08/14 09:47:56;;;;;;;9.70;9.00;;;;;;;25.43;100.00;98380.64;103614;1280;1376302;-73
2022/08/14 09:50:51;;;;;;;10.60;9.70;;;;;;;25.64;100.00;98379.46;104696;1278;70343;-73
2022/08/14 09:53:36;;;;;;;10.50;9.60;;;;;;;26.04;100.00;98375.59;104391;1280;72584;-74
2022/08/14 09:56:04;;;;;;;10.10;9.30;;;;;;;26.38;100.00;98370.23;104680;1278;61403;-74
2022/08/14 09:58:40;;;;;;;10.00;9.30;;;;;;;26.65;100.00;98370.80;104788;1277;61573;-74
2022/08/14 10:01:18;;;;;;;11.30;10.20;;;;;;;26.94;100.00;98372.59;104772;1277;76285;-74
2022/08/14 10:03:54;;;;;;;10.70;9.90;;;;;;;27.16;100.00;98377.08;104532;1277;69325;-74
2022/08/14 10:06:26;;;;;;;10.30;9.50;;;;;;;27.24;100.00;98378.11;104711;1277;74485;-74
2022/08/14 10:08:57;;;;;;;10.30;9.40;;;;;;;27.24;100.00;98378.74;104494;1277;61577;-74
2022/08/14 10:11:28;;;;;;;10.50;9.70;;;;;;;27.33;100.00;98375.71;104802;1277;61360;-74
2022/08/14 10:14:10;;;;;;;10.30;9.40;;;;;;;27.49;100.00;98378.16;104736;1277;76342;-75
2022/08/14 10:16:45;;;;;;;10.70;9.90;;;;;;;27.55;100.00;98375.27;104686;1277;69165;-73
2022/08/14 10:19:15;;;;;;;10.70;9.80;;;;;;;27.62;100.00;98380.17;104658;1277;74215;-73
2022/08/14 10:21:55;;;;;;;9.70;9.00;;;;;;;27.65;100.00;98379.40;104752;1271;61465;-73
2022/08/14 10:24:30;;;;;;;;;;;;;;;27.67;100.00;98374.30;104924;1271;61857;-73
2022/08/14 10:26:59;;;;;;;10.70;9.80;;;;;;;27.68;100.00;98376.13;105216;1271;75896;-71
2022/08/14 10:29:30;;;;;;;;;;;;;;;27.76;100.00;98377.19;105292;1271;68710;-73
2022/08/14 10:31:58;;;;;;;11.90;10.80;;;;;;;27.79;100.00;98376.31;105196;1271;74348;-72
2022/08/14 10:34:32;;;;;;;11.30;10.40;;;;;;;27.81;100.00;98377.10;105303;1271;61234;-72
2022/08/14 10:37:11;;;;;;;10.40;9.40;;;;;;;27.79;100.00;98377.84;105340;1271;61330;-71
2022/08/14 10:39:39;;;;;;;9.70;9.00;;;;;;;27.69;100.00;98376.20;105204;1271;76207;-72
2022/08/14 10:42:07;;;;;;;10.50;9.60;;;;;;;27.74;100.00;98379.77;105202;1271;70099;-72
2022/08/14 10:44:38;;;;;;;10.20;9.50;;;;;;;27.91;100.00;98380.11;105197;1271;73710;-73
2022/08/14 10:47:09;;;;;;;9.60;8.90;;;;;;;27.96;100.00;98377.22;105178;1271;61271;-73
2022/08/14 10:49:37;;;;;;;10.00;9.20;;;;;;;28.13;100.00;98374.38;105231;1271;61318;-73
2022/08/14 10:52:07;;;;;;;10.80;9.90;;;;;;;28.26;100.00;98375.14;105234;1271;76261;-73
2022/08/14 10:54:43;;;;;;;10.60;9.70;;;;;;;28.28;100.00;98371.07;105233;1271;70155;-73
2022/08/14 10:57:17;;;;;;;9.20;8.60;;;;;;;28.31;100.00;98373.02;105228;1271;74730;-73
2022/08/14 10:59:54;;;;;;;9.90;9.10;;;;;;;28.32;100.00;98369.11;105258;1271;61689;-73
2022/08/14 11:02:29;;;;;;;9.60;8.90;;;;;;;28.35;100.00;98370.34;105205;1271;61575;-73
2022/08/14 11:05:00;;;;;;;10.90;10.00;;;;;;;28.41;100.00;98371.95;105189;1271;75196;-73
2022/08/14 11:07:28;;;;;;;10.30;9.50;;;;;;;28.52;100.00;98371.08;105228;1271;68770;-72
2022/08/14 11:10:01;;;;;;;11.30;10.40;;;;;;;28.58;100.00;98370.27;105205;1271;73442;-72
2022/08/14 11:12:39;;;;;;;10.20;9.30;;;;;;;28.73;100.00;98364.83;105268;1271;61380;-72
2022/08/14 11:15:07;;;;;;;9.60;8.90;;;;;;;28.75;100.00;98361.59;105196;1271;61404;-72
2022/08/14 11:17:37;;;;;;;9.40;8.60;;;;;;;28.89;100.00;98362.14;105243;1271;76409;-73
2022/08/14 11:20:07;;;;;;;10.10;9.30;;;;;;;29.16;100.00;98364.59;105215;1271;69726;-72
2022/08/14 11:22:36;;;;;;;8.80;8.20;;;;;;;29.23;100.00;98363.70;105052;1271;74265;-73
2022/08/14 11:25:05;;;;;;;9.30;8.50;;;;;;;29.22;100.00;98366.11;105009;1271;61317;-73
2022/08/14 11:27:32;;;;;;;;;;;;;;;29.19;100.00;98360.80;104996;1271;61777;-73